createdAt,value
2022-11-30T00:00:28.343Z,1.10
2022-11-30T00:02:57.042Z,1.10
2022-11-30T00:05:24.131Z,1.10
2022-11-30T00:07:50.971Z,1.10
2022-11-30T00:10:17.941Z,1.10
2022-11-30T00:12:44.871Z,1.10
2022-11-30T00:15:14.183Z,1.10
2022-11-30T00:17:41.235Z,1.10
2022-11-30T00:20:08.366Z,1.10
2022-11-30T00:22:35.346Z,1.10
2022-11-30T00:25:03.378Z,1.10
2022-11-30T00:27:30.901Z,1.10
2022-11-30T00:29:58.011Z,1.00
2022-11-30T00:32:25.459Z,1.00
2022-11-30T00:34:52.435Z,1.00
2022-11-30T00:37:19.355Z,1.00
2022-11-30T00:39:49.311Z,1.00
2022-11-30T00:42:16.066Z,1.00
2022-11-30T00:44:43.089Z,1.00
2022-11-30T00:47:11.415Z,1.00
2022-11-30T00:49:38.168Z,1.00
2022-11-30T00:52:05.398Z,1.00
2022-11-30T00:54:32.247Z,1.00
2022-11-30T00:56:59.155Z,1.00
2022-11-30T00:59:26.026Z,1.00
2022-11-30T01:01:54.416Z,1.00
2022-11-30T01:04:21.646Z,1.00
2022-11-30T01:06:48.399Z,1.00
2022-11-30T01:09:15.139Z,1.00
2022-11-30T01:11:41.984Z,0.90
2022-11-30T01:14:08.829Z,0.90
2022-11-30T01:16:35.627Z,0.90
2022-11-30T01:19:02.395Z,0.90
2022-11-30T01:21:29.309Z,0.90
2022-11-30T01:23:56.291Z,1.00
2022-11-30T01:26:23.495Z,0.90
2022-11-30T01:28:51.520Z,0.90
2022-11-30T01:31:19.095Z,0.90
2022-11-30T01:33:53.119Z,0.90
2022-11-30T01:36:26.426Z,0.90
2022-11-30T01:38:54.799Z,0.90
2022-11-30T01:41:23.417Z,0.90
2022-11-30T01:43:54.117Z,0.90
2022-11-30T01:46:20.922Z,1.20
2022-11-30T01:48:51.205Z,0.90
2022-11-30T01:51:18.011Z,1.00
2022-11-30T01:53:45.159Z,0.90
2022-11-30T01:56:11.969Z,0.90
2022-11-30T01:58:39.044Z,0.90
2022-11-30T02:01:06.153Z,0.90
2022-11-30T02:03:35.819Z,0.90
2022-11-30T02:06:03.130Z,0.90
2022-11-30T02:08:30.976Z,0.90
2022-11-30T02:11:03.487Z,0.90
2022-11-30T02:13:49.625Z,0.90
2022-11-30T02:16:22.297Z,0.90
2022-11-30T02:18:49.192Z,0.90
2022-11-30T02:21:16.047Z,0.90
2022-11-30T02:23:43.010Z,0.90
2022-11-30T02:26:33.496Z,0.90
2022-11-30T02:29:00.211Z,0.90
2022-11-30T02:31:31.224Z,0.80
2022-11-30T02:33:58.837Z,0.80
2022-11-30T02:36:26.655Z,0.80
2022-11-30T02:38:53.578Z,0.80
2022-11-30T02:41:20.340Z,0.80
2022-11-30T02:43:47.261Z,0.80
2022-11-30T02:46:16.564Z,0.80
2022-11-30T02:48:44.076Z,0.70
2022-11-30T02:51:13.099Z,0.70
2022-11-30T02:53:39.960Z,0.80
2022-11-30T02:56:06.877Z,0.70
2022-11-30T02:58:33.669Z,0.80
2022-11-30T03:01:00.467Z,0.70
2022-11-30T03:03:27.338Z,0.70
2022-11-30T03:05:54.146Z,0.70
2022-11-30T03:08:21.025Z,0.70
2022-11-30T03:10:48.018Z,0.80
2022-11-30T03:13:14.766Z,0.70
2022-11-30T03:15:41.564Z,0.70
2022-11-30T03:18:08.288Z,0.70
2022-11-30T03:20:35.175Z,0.80
2022-11-30T03:23:02.394Z,0.70
2022-11-30T03:25:29.525Z,0.70
2022-11-30T03:27:56.262Z,0.70
2022-11-30T03:30:23.101Z,0.70
2022-11-30T03:32:51.833Z,0.60
2022-11-30T03:35:18.779Z,0.70
2022-11-30T03:37:45.798Z,0.60
2022-11-30T03:40:12.720Z,0.60
2022-11-30T03:42:39.627Z,0.70
2022-11-30T03:45:06.816Z,0.60
2022-11-30T03:47:33.577Z,0.60
2022-11-30T03:50:00.318Z,0.60
2022-11-30T03:52:27.130Z,0.60
2022-11-30T03:54:53.859Z,0.60
2022-11-30T03:57:20.655Z,0.60
2022-11-30T03:59:47.481Z,0.60
2022-11-30T04:02:14.315Z,0.70
2022-11-30T04:04:41.052Z,0.70
2022-11-30T04:07:07.888Z,0.70
2022-11-30T04:09:34.676Z,0.60
2022-11-30T04:12:01.911Z,2.50
2022-11-30T04:14:28.921Z,0.60
2022-11-30T04:16:55.806Z,0.50
2022-11-30T04:19:22.677Z,0.50
2022-11-30T04:21:49.441Z,0.50
2022-11-30T04:24:16.178Z,0.60
2022-11-30T04:26:43.189Z,0.60
2022-11-30T04:29:09.967Z,0.50
2022-11-30T04:31:36.811Z,0.50
2022-11-30T04:34:03.569Z,0.60
2022-11-30T04:36:30.404Z,0.60
2022-11-30T04:38:57.304Z,0.60
2022-11-30T04:41:24.187Z,0.50
2022-11-30T04:43:50.963Z,0.50
2022-11-30T04:46:17.785Z,1.00
2022-11-30T04:48:44.598Z,0.50
2022-11-30T04:51:11.365Z,0.50
2022-11-30T04:53:38.975Z,0.50
2022-11-30T04:56:06.983Z,0.50
2022-11-30T04:58:33.974Z,0.50
2022-11-30T05:01:00.946Z,0.50
2022-11-30T05:03:27.878Z,0.40
2022-11-30T05:05:54.729Z,0.50
2022-11-30T05:08:21.585Z,0.50
2022-11-30T05:10:53.251Z,0.50
2022-11-30T05:13:21.298Z,0.50
2022-11-30T05:15:48.213Z,0.40
2022-11-30T05:18:15.971Z,0.50
2022-11-30T05:20:46.870Z,0.50
2022-11-30T05:23:13.836Z,0.50
2022-11-30T05:25:40.552Z,0.50
2022-11-30T05:28:07.288Z,0.80
2022-11-30T05:30:34.125Z,0.50
2022-11-30T05:33:01.029Z,0.50
2022-11-30T05:35:27.944Z,0.50
2022-11-30T05:37:54.788Z,0.40
2022-11-30T05:40:21.610Z,0.40
2022-11-30T05:42:48.457Z,0.50
2022-11-30T05:45:15.287Z,0.50
2022-11-30T05:47:42.059Z,0.40
2022-11-30T05:50:09.190Z,0.50
2022-11-30T05:52:35.899Z,0.50
2022-11-30T05:55:02.646Z,0.40
2022-11-30T05:57:29.393Z,0.40
2022-11-30T05:59:56.215Z,0.40
2022-11-30T06:02:27.975Z,0.40
2022-11-30T06:04:55.161Z,0.40
2022-11-30T06:07:21.944Z,0.30
2022-11-30T06:09:48.682Z,0.30
2022-11-30T06:12:15.432Z,0.40
2022-11-30T06:14:42.212Z,0.40
2022-11-30T06:17:08.971Z,0.40
2022-11-30T06:19:35.842Z,0.30
2022-11-30T06:22:02.692Z,0.30
2022-11-30T06:24:29.690Z,0.30
2022-11-30T06:26:56.523Z,0.30
2022-11-30T06:29:23.323Z,0.40
2022-11-30T06:31:50.300Z,0.40
2022-11-30T06:34:17.487Z,0.40
2022-11-30T06:36:44.326Z,0.30
2022-11-30T06:39:11.386Z,0.40
2022-11-30T06:41:38.336Z,0.30
2022-11-30T06:44:11.470Z,0.40
2022-11-30T06:46:38.218Z,0.40
2022-11-30T06:49:05.006Z,0.40
2022-11-30T06:51:31.801Z,0.40
2022-11-30T06:53:58.736Z,0.30
2022-11-30T06:56:25.535Z,0.30
2022-11-30T06:58:54.471Z,0.30
2022-11-30T07:01:21.423Z,0.70
2022-11-30T07:03:48.381Z,0.40
2022-11-30T07:06:15.494Z,0.30
2022-11-30T07:08:42.944Z,0.30
2022-11-30T07:11:10.376Z,0.30
2022-11-30T07:13:37.355Z,0.30
2022-11-30T07:16:05.517Z,0.30
2022-11-30T07:18:34.479Z,0.40
2022-11-30T07:21:01.805Z,0.40
2022-11-30T07:23:54.041Z,0.30
2022-11-30T07:26:22.961Z,0.30
2022-11-30T07:28:54.564Z,0.30
2022-11-30T07:31:26.501Z,0.30
2022-11-30T07:33:53.335Z,0.30
2022-11-30T07:36:22.067Z,0.30
2022-11-30T07:38:49.492Z,0.30
2022-11-30T07:41:16.414Z,0.30
2022-11-30T07:43:43.476Z,0.40
2022-11-30T07:46:12.825Z,0.50
2022-11-30T07:48:39.867Z,0.40
2022-11-30T07:51:07.932Z,0.40
2022-11-30T07:53:34.709Z,0.50
2022-11-30T07:56:05.354Z,0.50
2022-11-30T07:58:32.786Z,0.50
2022-11-30T08:01:10.615Z,0.50
2022-11-30T08:03:37.779Z,0.40
2022-11-30T08:06:08.718Z,0.50
2022-11-30T08:08:36.868Z,0.40
2022-11-30T08:11:04.146Z,0.40
2022-11-30T08:13:31.242Z,0.30
2022-11-30T08:16:01.832Z,0.30
2022-11-30T08:18:28.677Z,0.30
2022-11-30T08:21:00.046Z,0.40
2022-11-30T08:23:30.353Z,0.50
2022-11-30T08:25:57.425Z,0.40
2022-11-30T08:28:26.521Z,0.50
2022-11-30T08:30:53.366Z,0.40
2022-11-30T08:33:20.133Z,0.50
2022-11-30T08:35:46.889Z,0.50
2022-11-30T08:38:13.748Z,0.50
2022-11-30T08:40:40.542Z,0.50
2022-11-30T08:43:08.191Z,0.50
2022-11-30T08:45:35.567Z,0.60
2022-11-30T08:48:02.486Z,0.60
2022-11-30T08:50:29.338Z,0.60
2022-11-30T08:52:59.362Z,0.70
2022-11-30T08:55:28.618Z,0.70
2022-11-30T09:00:29.402Z,0.80
2022-11-30T09:02:56.564Z,0.70
2022-11-30T09:05:23.430Z,0.70
2022-11-30T09:07:50.352Z,0.70
2022-11-30T09:10:17.178Z,0.80
2022-11-30T09:12:43.999Z,0.90
2022-11-30T09:15:10.850Z,0.90
2022-11-30T09:17:37.719Z,0.90
2022-11-30T09:20:05.020Z,0.90
2022-11-30T09:22:32.004Z,0.90
2022-11-30T09:24:58.824Z,1.00
2022-11-30T09:29:57.470Z,0.90
2022-11-30T09:32:24.317Z,0.90
2022-11-30T09:34:51.444Z,0.90
2022-11-30T09:37:18.439Z,0.90
2022-11-30T09:39:45.220Z,2.10
2022-11-30T09:42:15.476Z,1.00
2022-11-30T09:44:50.612Z,0.90
2022-11-30T09:47:27.718Z,1.00
2022-11-30T09:50:02.397Z,1.10
2022-11-30T09:52:37.398Z,1.10
2022-11-30T09:55:07.766Z,1.10
2022-11-30T09:57:48.641Z,1.00
2022-11-30T10:00:17.679Z,1.10
2022-11-30T10:02:45.107Z,1.10
2022-11-30T10:05:15.957Z,1.10
2022-11-30T10:07:46.021Z,1.10
2022-11-30T10:10:34.740Z,1.00
2022-11-30T10:13:04.915Z,1.00
2022-11-30T10:15:38.005Z,1.10
2022-11-30T10:18:28.821Z,0.80
2022-11-30T10:21:02.100Z,1.20
2022-11-30T10:23:43.213Z,1.20
2022-11-30T10:26:13.421Z,1.10
2022-11-30T10:28:51.130Z,1.20
2022-11-30T10:31:19.329Z,1.10
2022-11-30T10:33:48.136Z,1.30
2022-11-30T10:36:20.494Z,1.30
2022-11-30T10:38:50.214Z,1.20
2022-11-30T10:41:20.304Z,1.20
2022-11-30T10:43:55.234Z,1.10
2022-11-30T10:46:24.864Z,1.10
2022-11-30T10:49:12.623Z,1.20
2022-11-30T10:51:40.971Z,1.10
2022-11-30T10:54:15.542Z,1.10
2022-11-30T10:56:42.502Z,1.10
2022-11-30T10:59:18.769Z,1.10
2022-11-30T11:01:45.589Z,1.20
2022-11-30T11:04:12.568Z,1.20
2022-11-30T11:06:48.599Z,1.10
2022-11-30T11:09:35.848Z,1.10
2022-11-30T11:12:04.392Z,1.10
2022-11-30T11:14:36.438Z,1.10
2022-11-30T11:17:20.349Z,1.10
2022-11-30T11:19:48.594Z,1.20
2022-11-30T11:22:25.654Z,1.20
2022-11-30T11:25:07.879Z,1.10
2022-11-30T11:27:37.547Z,1.10
2022-11-30T11:30:14.790Z,1.10
2022-11-30T11:32:56.972Z,1.20
2022-11-30T11:35:34.546Z,1.10
2022-11-30T11:38:01.331Z,1.20
2022-11-30T11:40:28.163Z,1.20
2022-11-30T11:42:58.208Z,1.20
2022-11-30T11:45:31.392Z,1.20
2022-11-30T11:47:58.149Z,1.20
2022-11-30T11:50:58.192Z,1.30
2022-11-30T11:53:14.956Z,1.30
2022-11-30T11:55:42.476Z,1.50
2022-11-30T11:58:15.570Z,1.20
2022-11-30T12:00:43.041Z,1.10
2022-11-30T12:03:28.571Z,1.10
2022-11-30T12:06:04.224Z,1.00
2022-11-30T12:08:36.107Z,1.00
2022-11-30T12:11:05.695Z,0.90
2022-11-30T12:13:33.455Z,0.90
2022-11-30T12:16:10.628Z,0.90
2022-11-30T12:18:56.371Z,0.90
2022-11-30T12:21:29.236Z,0.90
2022-11-30T12:24:19.397Z,0.90
2022-11-30T12:26:48.756Z,0.90
2022-11-30T12:29:22.045Z,0.90
2022-11-30T12:31:57.782Z,0.90
2022-11-30T12:34:35.419Z,1.00
2022-11-30T12:37:02.235Z,1.00
2022-11-30T12:39:48.305Z,1.00
2022-11-30T12:42:41.707Z,1.00
2022-11-30T12:45:23.847Z,1.00
2022-11-30T12:47:54.037Z,1.10
2022-11-30T12:50:30.061Z,1.10
2022-11-30T12:52:59.511Z,1.00
2022-11-30T12:55:26.283Z,0.90
2022-11-30T12:58:13.329Z,0.90
2022-11-30T13:00:53.356Z,0.90
2022-11-30T13:03:42.851Z,0.90
2022-11-30T13:06:17.365Z,1.00
2022-11-30T13:08:46.926Z,0.90
2022-11-30T13:11:17.867Z,0.90
2022-11-30T13:13:50.396Z,0.90
2022-11-30T13:16:18.688Z,0.90
2022-11-30T13:18:45.806Z,0.80
2022-11-30T13:21:38.924Z,0.80
2022-11-30T13:24:11.738Z,0.70
2022-11-30T13:26:47.582Z,0.80
2022-11-30T13:29:17.438Z,0.70
2022-11-30T13:32:05.637Z,0.80
2022-11-30T13:34:33.049Z,0.70
2022-11-30T13:37:07.595Z,0.70
2022-11-30T13:39:57.445Z,0.60
2022-11-30T13:42:50.111Z,0.60
2022-11-30T13:45:33.193Z,0.60
2022-11-30T13:48:16.379Z,0.50
2022-11-30T13:50:46.458Z,0.50
2022-11-30T13:53:24.356Z,0.50
2022-11-30T13:56:01.238Z,0.50
2022-11-30T13:58:29.014Z,0.40
2022-11-30T14:01:04.538Z,0.40
2022-11-30T14:03:32.379Z,0.50
2022-11-30T14:06:00.653Z,0.40
2022-11-30T14:08:27.794Z,0.40
2022-11-30T14:10:55.746Z,0.40
2022-11-30T14:13:30.863Z,0.40
2022-11-30T14:16:00.541Z,0.40
2022-11-30T14:18:30.322Z,0.30
2022-11-30T14:21:01.930Z,0.40
2022-11-30T14:23:28.834Z,0.30
2022-11-30T14:25:57.990Z,0.30
2022-11-30T14:28:33.209Z,0.30
2022-11-30T14:31:00.430Z,0.30
2022-11-30T14:33:36.558Z,0.30
2022-11-30T14:36:03.994Z,0.30
2022-11-30T14:38:31.499Z,0.30
2022-11-30T14:40:58.758Z,0.30
2022-11-30T14:43:28.400Z,0.30
2022-11-30T14:46:05.772Z,0.30
2022-11-30T14:48:34.892Z,0.30
2022-11-30T14:51:04.167Z,0.30
2022-11-30T14:53:30.992Z,0.30
2022-11-30T14:56:00.040Z,0.30
2022-11-30T14:58:26.852Z,0.30
2022-11-30T15:00:54.107Z,0.30
2022-11-30T15:03:26.027Z,0.30
2022-11-30T15:05:59.504Z,0.30
2022-11-30T15:10:54.449Z,0.30
2022-11-30T15:13:21.323Z,0.30
2022-11-30T15:15:52.426Z,0.20
2022-11-30T15:18:20.657Z,0.20
2022-11-30T15:20:50.904Z,0.20
2022-11-30T15:23:17.938Z,0.20
2022-11-30T15:26:13.847Z,0.20
2022-11-30T15:28:43.735Z,0.20
2022-11-30T15:31:13.450Z,0.20
2022-11-30T15:33:42.010Z,0.20
2022-11-30T15:36:32.858Z,0.20
2022-11-30T15:38:56.053Z,0.20
2022-11-30T15:41:24.560Z,0.20
2022-11-30T15:43:53.593Z,0.20
2022-11-30T15:46:32.749Z,0.20
2022-11-30T15:49:17.263Z,0.20
2022-11-30T15:51:46.218Z,0.20
2022-11-30T15:54:13.192Z,0.30
2022-11-30T15:56:39.978Z,0.30
2022-11-30T15:59:06.753Z,0.20
2022-11-30T16:02:02.438Z,0.20
2022-11-30T16:04:49.543Z,0.20
2022-11-30T16:07:17.513Z,0.30
2022-11-30T16:09:44.295Z,0.30
2022-11-30T16:12:19.252Z,0.30
2022-11-30T16:14:46.095Z,0.20
2022-11-30T16:17:13.012Z,0.20
2022-11-30T16:19:39.836Z,0.20
2022-11-30T16:22:08.703Z,0.20
2022-11-30T16:24:35.559Z,0.20
2022-11-30T16:27:06.575Z,0.20
2022-11-30T16:29:33.483Z,0.20
2022-11-30T16:32:00.347Z,0.20
2022-11-30T16:34:27.220Z,0.20
2022-11-30T16:36:54.125Z,0.20
2022-11-30T16:39:20.885Z,0.10
2022-11-30T16:41:47.745Z,0.10
2022-11-30T16:44:14.532Z,0.10
2022-11-30T16:46:41.495Z,0.20
2022-11-30T16:49:08.782Z,0.10
2022-11-30T16:51:36.301Z,0.10
2022-11-30T16:54:03.393Z,0.10
2022-11-30T16:56:30.152Z,0.00
2022-11-30T16:58:56.876Z,0.10
2022-11-30T17:01:34.576Z,0.10
2022-11-30T17:04:05.388Z,0.10
2022-11-30T17:06:32.220Z,0.10
2022-11-30T17:08:59.112Z,0.10
2022-11-30T17:11:31.392Z,0.10
2022-11-30T17:13:58.488Z,0.10
2022-11-30T17:16:28.541Z,0.10
2022-11-30T17:18:55.408Z,0.10
2022-11-30T17:21:25.487Z,0.20
2022-11-30T17:23:52.353Z,0.10
2022-11-30T17:26:19.158Z,0.10
2022-11-30T17:28:46.015Z,0.10
2022-11-30T17:31:13.129Z,0.10
2022-11-30T17:33:44.943Z,0.10
2022-11-30T17:36:15.872Z,0.10
2022-11-30T17:38:44.273Z,0.10
2022-11-30T17:41:18.874Z,0.00
2022-11-30T17:43:46.850Z,0.10
2022-11-30T17:46:15.815Z,0.10
2022-11-30T17:48:43.774Z,0.10
2022-11-30T17:51:11.293Z,0.00
2022-11-30T17:53:38.976Z,0.00
2022-11-30T17:56:09.700Z,0.00
2022-11-30T17:58:43.504Z,0.00
2022-11-30T18:01:18.039Z,0.00
2022-11-30T18:03:45.233Z,0.00
2022-11-30T18:06:12.060Z,0.00
2022-11-30T18:08:40.454Z,0.00
2022-11-30T18:11:08.130Z,-0.10
2022-11-30T18:13:34.891Z,0.00
2022-11-30T18:16:07.777Z,0.00
2022-11-30T18:18:34.594Z,0.00
2022-11-30T18:21:09.463Z,0.00
2022-11-30T18:23:37.185Z,0.00
2022-11-30T18:26:05.657Z,0.00
2022-11-30T18:28:32.712Z,0.00
2022-11-30T18:30:59.652Z,-0.10
2022-11-30T18:35:57.245Z,0.00
2022-11-30T18:38:24.308Z,-0.10
2022-11-30T18:40:51.230Z,-0.10
2022-11-30T18:43:18.096Z,-0.10
2022-11-30T18:45:44.833Z,-0.10
2022-11-30T18:48:11.738Z,-0.10
2022-11-30T18:50:38.514Z,-0.10
2022-11-30T18:53:05.371Z,-0.10
2022-11-30T18:55:32.321Z,-0.10
2022-11-30T18:58:01.138Z,-0.10
2022-11-30T19:00:28.040Z,-0.10
2022-11-30T19:02:57.832Z,-0.10
2022-11-30T19:05:35.006Z,-0.10
2022-11-30T19:08:05.905Z,-0.10
2022-11-30T19:10:33.757Z,-0.10
2022-11-30T19:13:00.868Z,-0.10
2022-11-30T19:15:27.797Z,-0.10
2022-11-30T19:17:55.187Z,-0.10
2022-11-30T19:20:22.279Z,-0.10
2022-11-30T19:22:49.035Z,-0.10
2022-11-30T19:25:18.894Z,-0.10
2022-11-30T19:27:45.996Z,-0.10
2022-11-30T19:30:13.244Z,-0.10
2022-11-30T19:32:40.114Z,-0.20
2022-11-30T19:35:07.196Z,-0.10
2022-11-30T19:37:33.971Z,-0.20
2022-11-30T19:40:00.729Z,-0.10
2022-11-30T19:42:29.678Z,-0.10
2022-11-30T19:44:56.450Z,-0.10
2022-11-30T19:47:23.281Z,-0.10
2022-11-30T19:49:50.010Z,-0.10
2022-11-30T19:52:19.840Z,-0.10
2022-11-30T19:54:47.094Z,-0.20
2022-11-30T19:57:14.359Z,-0.10
2022-11-30T19:59:41.108Z,-0.10
2022-11-30T20:02:09.586Z,-0.20
2022-11-30T20:04:39.111Z,-0.20
2022-11-30T20:07:05.872Z,-0.10
2022-11-30T20:09:33.006Z,-0.10
2022-11-30T20:11:59.800Z,-0.20
2022-11-30T20:14:26.588Z,-0.10
2022-11-30T20:16:53.362Z,-0.10
2022-11-30T20:19:20.363Z,-0.10
2022-11-30T20:21:48.418Z,0.00
2022-11-30T20:24:15.903Z,-0.10
2022-11-30T20:26:43.753Z,-0.10
2022-11-30T20:29:14.561Z,-0.20
2022-11-30T20:31:41.993Z,-0.10
2022-11-30T20:34:09.152Z,-0.10
2022-11-30T20:36:36.274Z,-0.10
2022-11-30T20:39:03.578Z,-0.10
2022-11-30T20:41:30.501Z,-0.10
2022-11-30T20:43:57.338Z,-0.10
2022-11-30T20:46:28.405Z,-0.10
2022-11-30T20:48:55.708Z,-0.10
2022-11-30T20:51:32.034Z,-0.10
2022-11-30T20:54:00.651Z,-0.10
2022-11-30T20:56:27.836Z,-0.10
2022-11-30T20:58:54.705Z,-0.10
2022-11-30T21:01:22.709Z,-0.10
2022-11-30T21:03:49.712Z,-0.10
2022-11-30T21:06:16.948Z,-0.10
2022-11-30T21:08:44.270Z,-0.10
2022-11-30T21:11:12.965Z,-0.20
2022-11-30T21:13:40.254Z,-0.20
2022-11-30T21:16:08.324Z,-0.20
2022-11-30T21:18:35.469Z,-0.20
2022-11-30T21:21:06.254Z,-0.30
2022-11-30T21:23:33.231Z,-0.30
2022-11-30T21:26:15.170Z,-0.30
2022-11-30T21:28:41.899Z,-0.30
2022-11-30T21:31:08.707Z,-0.30
2022-11-30T21:33:35.480Z,-0.30
2022-11-30T21:36:08.775Z,-0.30
2022-11-30T21:38:35.628Z,-0.30
2022-11-30T21:41:02.960Z,-0.30
2022-11-30T21:43:30.457Z,-0.30
2022-11-30T21:46:01.658Z,-0.30
2022-11-30T21:48:29.900Z,-0.30
2022-11-30T21:50:58.077Z,-0.30
2022-11-30T21:53:24.942Z,-0.30
2022-11-30T21:55:55.698Z,-0.30
2022-11-30T21:58:23.035Z,-0.30
2022-11-30T22:00:56.869Z,-0.30
2022-11-30T22:03:23.917Z,-0.30
2022-11-30T22:06:03.051Z,-0.30
2022-11-30T22:08:30.303Z,-0.30
2022-11-30T22:11:04.489Z,-0.30
2022-11-30T22:13:32.132Z,-0.30
2022-11-30T22:16:02.397Z,-0.30
2022-11-30T22:18:32.115Z,-0.30
2022-11-30T22:21:05.988Z,-0.30
2022-11-30T22:23:34.390Z,-0.30
2022-11-30T22:26:16.318Z,-0.40
2022-11-30T22:28:44.910Z,-0.40
2022-11-30T22:31:13.085Z,-0.30
2022-11-30T22:33:40.999Z,-0.30
2022-11-30T22:36:08.598Z,-0.30
2022-11-30T22:38:35.509Z,-0.30
2022-11-30T22:41:09.714Z,-0.40
2022-11-30T22:43:36.481Z,-0.40
2022-11-30T22:46:10.986Z,-0.40
2022-11-30T22:48:38.188Z,-0.50
2022-11-30T22:51:06.755Z,-0.40
2022-11-30T22:53:35.006Z,-0.40
2022-11-30T22:56:02.942Z,-0.40
2022-11-30T22:58:30.135Z,-0.40
2022-11-30T23:00:57.111Z,-0.50
2022-11-30T23:03:25.561Z,-0.50
2022-11-30T23:05:52.552Z,-0.40
2022-11-30T23:08:19.493Z,-0.40
2022-11-30T23:10:46.303Z,-0.50
2022-11-30T23:13:13.052Z,-0.50
2022-11-30T23:15:39.798Z,-0.50
2022-11-30T23:18:06.587Z,-0.50
2022-11-30T23:20:34.800Z,-0.40
2022-11-30T23:23:01.577Z,-0.50
2022-11-30T23:25:28.311Z,-0.50
2022-11-30T23:27:55.081Z,-0.50
2022-11-30T23:30:21.785Z,-0.50
2022-11-30T23:32:48.522Z,-0.20
2022-11-30T23:35:15.281Z,-0.50
2022-11-30T23:37:42.016Z,-0.50
2022-11-30T23:40:09.050Z,-0.50
2022-11-30T23:42:35.795Z,-0.50
2022-11-30T23:45:02.529Z,-0.50
2022-11-30T23:47:29.259Z,-0.50
2022-11-30T23:49:55.999Z,-0.50
2022-11-30T23:52:22.779Z,-0.50
2022-11-30T23:54:49.644Z,-0.50
2022-11-30T23:57:16.397Z,-0.40
2022-11-30T23:59:43.206Z,-0.50
